Time;durP1;ratioP1;P1;durP2;ratioP2;P2;SDS_P1;SDS_P2;PMS_P1;PMS_P2;Temp;Humidity;BMP_temperature;BMP_pressure;BME280_temperature;BME280_humidity;BME280_pressure;Samples;Min_cycle;Max_cycle;Signal;HPM_P1;HPM_P2
2024/01/03 00:01:18;;;;;;;1.27;1.20;;;10.40;53.90;;;;;;5033350;28;20754;-62
2024/01/03 00:03:44;;;;;;;1.00;1.00;;;10.40;54.00;;;;;;5032408;28;20314;-61
2024/01/03 00:06:11;;;;;;;1.20;1.20;;;10.30;54.00;;;;;;5030263;28;20233;-60
2024/01/03 00:08:38;;;;;;;1.10;1.10;;;10.40;53.90;;;;;;5034146;28;20322;-59
2024/01/03 00:11:05;;;;;;;1.10;1.10;;;10.40;53.90;;;;;;5030690;28;20672;-61
2024/01/03 00:13:32;;;;;;;1.10;1.10;;;10.30;54.00;;;;;;5027992;28;20681;-61
2024/01/03 00:15:58;;;;;;;1.17;1.17;;;10.30;54.30;;;;;;5033170;28;20228;-61
2024/01/03 00:18:25;;;;;;;1.30;1.20;;;10.20;54.60;;;;;;5033615;28;20682;-62
2024/01/03 00:20:51;;;;;;;1.20;1.20;;;10.20;54.40;;;;;;5031200;28;20245;-62
2024/01/03 00:23:18;;;;;;;1.20;1.20;;;10.10;54.40;;;;;;5032274;28;20232;-62
2024/01/03 00:25:44;;;;;;;1.17;1.17;;;10.10;54.90;;;;;;5032250;28;20231;-61
2024/01/03 00:28:11;;;;;;;1.10;1.10;;;10.10;54.80;;;;;;5033154;28;20210;-60
2024/01/03 00:30:37;;;;;;;1.17;1.10;;;10.10;54.50;;;;;;5029149;28;20303;-62
2024/01/03 00:33:04;;;;;;;1.30;1.20;;;10.10;54.80;;;;;;5027095;28;20210;-61
2024/01/03 00:35:30;;;;;;;1.23;1.23;;;10.10;54.60;;;;;;5027719;28;20852;-62
2024/01/03 00:37:56;;;;;;;1.43;1.30;;;10.00;54.70;;;;;;5029762;28;20237;-61
2024/01/03 00:40:22;;;;;;;1.20;1.20;;;10.00;54.70;;;;;;5032483;28;20692;-61
2024/01/03 00:42:49;;;;;;;1.10;1.10;;;10.00;55.40;;;;;;5033228;28;20259;-61
2024/01/03 00:45:15;;;;;;;1.30;1.30;;;10.00;55.00;;;;;;5033185;28;20248;-60
2024/01/03 00:47:42;;;;;;;1.30;1.30;;;9.90;56.20;;;;;;5025101;28;20624;-62
2024/01/03 00:50:08;;;;;;;1.17;1.17;;;9.90;56.80;;;;;;5021545;28;20272;-61
2024/01/03 00:52:35;;;;;;;1.20;1.10;;;9.90;57.10;;;;;;5033221;28;20212;-61
2024/01/03 00:55:01;;;;;;;1.20;1.20;;;9.90;56.50;;;;;;5023023;28;20316;-62
2024/01/03 00:57:28;;;;;;;1.27;1.27;;;9.90;56.70;;;;;;5031772;28;20242;-61
2024/01/03 00:59:54;;;;;;;1.10;1.10;;;9.90;56.30;;;;;;5032922;28;20262;-60
2024/01/03 01:02:20;;;;;;;1.13;1.13;;;9.90;56.00;;;;;;5032444;28;20215;-61
2024/01/03 01:04:47;;;;;;;1.23;1.23;;;9.90;56.10;;;;;;5032561;28;20247;-61
2024/01/03 01:07:13;;;;;;;1.20;1.20;;;9.80;55.70;;;;;;5031932;28;20258;-62
2024/01/03 01:09:40;;;;;;;1.20;1.20;;;9.80;55.70;;;;;;5030377;28;20705;-61
2024/01/03 01:12:06;;;;;;;1.43;1.40;;;9.90;55.50;;;;;;5030995;28;20241;-62
2024/01/03 01:14:33;;;;;;;1.60;1.50;;;9.90;55.20;;;;;;5032554;28;20207;-61
2024/01/03 01:16:59;;;;;;;1.40;1.40;;;9.80;55.20;;;;;;5024756;28;20230;-61
2024/01/03 01:19:26;;;;;;;1.47;1.37;;;9.80;55.40;;;;;;5032475;28;20714;-61
2024/01/03 01:21:53;;;;;;;1.10;1.10;;;9.80;55.30;;;;;;5032544;28;20217;-60
2024/01/03 01:24:19;;;;;;;1.40;1.40;;;9.70;55.60;;;;;;5032446;28;20262;-60
2024/01/03 01:26:46;;;;;;;1.30;1.30;;;9.70;55.50;;;;;;5031899;28;20233;-60
2024/01/03 01:29:12;;;;;;;1.30;1.30;;;9.70;55.50;;;;;;5027873;28;20213;-60
2024/01/03 01:31:39;;;;;;;1.43;1.40;;;9.70;55.30;;;;;;5030210;28;20230;-57
2024/01/03 01:34:06;;;;;;;1.20;1.20;;;9.70;55.40;;;;;;5032533;28;20202;-59
2024/01/03 01:36:32;;;;;;;1.40;1.30;;;9.70;55.30;;;;;;5027655;28;20698;-60
2024/01/03 01:38:59;;;;;;;1.40;1.30;;;9.70;55.20;;;;;;5032643;28;20210;-61
2024/01/03 01:41:25;;;;;;;1.20;1.20;;;9.70;55.10;;;;;;5029440;28;20635;-60
2024/01/03 01:43:53;;;;;;;1.30;1.30;;;9.70;54.80;;;;;;5031925;28;20265;-60
2024/01/03 01:46:20;;;;;;;1.50;1.40;;;9.70;54.80;;;;;;5027480;28;20229;-60
2024/01/03 01:48:46;;;;;;;1.37;1.10;;;9.80;54.60;;;;;;5032183;28;20242;-58
2024/01/03 01:51:13;;;;;;;1.17;1.17;;;9.80;54.30;;;;;;5032486;28;20311;-60
2024/01/03 01:53:38;;;;;;;1.20;1.20;;;9.90;54.40;;;;;;5032039;28;20203;-59
2024/01/03 01:56:05;;;;;;;1.23;1.13;;;9.90;54.40;;;;;;5031788;28;20277;-59
2024/01/03 01:58:31;;;;;;;1.13;1.13;;;9.90;54.40;;;;;;5023203;28;20230;-60
2024/01/03 02:00:58;;;;;;;1.33;1.33;;;9.90;54.40;;;;;;5025528;28;20237;-60
2024/01/03 02:03:24;;;;;;;1.20;1.20;;;9.90;54.40;;;;;;5027699;28;20339;-60
2024/01/03 02:05:50;;;;;;;1.30;1.30;;;9.90;54.40;;;;;;5021662;28;20285;-59
2024/01/03 02:08:17;;;;;;;1.30;1.30;;;10.00;53.60;;;;;;5025790;28;20274;-60
2024/01/03 02:10:43;;;;;;;1.30;1.30;;;10.00;53.80;;;;;;5031623;28;20260;-61
2024/01/03 02:13:10;;;;;;;1.30;1.30;;;10.00;53.50;;;;;;5031460;28;20752;-60
2024/01/03 02:15:36;;;;;;;1.10;1.10;;;10.00;53.50;;;;;;5030866;28;20228;-60
2024/01/03 02:18:03;;;;;;;1.47;1.30;;;10.00;53.50;;;;;;5031237;28;20252;-60
2024/01/03 02:20:29;;;;;;;1.13;1.13;;;10.00;53.80;;;;;;5027651;28;20258;-60
2024/01/03 02:22:56;;;;;;;1.03;1.03;;;10.00;53.60;;;;;;5022230;28;20264;-59
2024/01/03 02:25:22;;;;;;;1.40;1.30;;;10.00;54.20;;;;;;5026094;28;20304;-59
2024/01/03 02:27:50;;;;;;;1.40;1.30;;;10.00;54.00;;;;;;5031645;28;20215;-60
2024/01/03 02:30:16;;;;;;;1.27;1.27;;;10.00;54.00;;;;;;5031447;28;20214;-60
2024/01/03 02:32:43;;;;;;;1.23;1.23;;;10.00;54.50;;;;;;5030980;28;20206;-59
2024/01/03 02:35:09;;;;;;;1.43;1.40;;;10.00;54.10;;;;;;5027395;28;20230;-60
2024/01/03 02:37:35;;;;;;;1.20;1.20;;;10.00;54.10;;;;;;5030842;28;20257;-60
2024/01/03 02:40:02;;;;;;;1.40;1.30;;;10.00;53.60;;;;;;5031940;28;20687;-58
2024/01/03 02:42:28;;;;;;;1.20;1.20;;;10.00;53.70;;;;;;5028870;28;20251;-56
2024/01/03 02:44:55;;;;;;;1.30;1.30;;;10.00;53.70;;;;;;5031781;28;20735;-59
2024/01/03 02:47:21;;;;;;;1.30;1.27;;;9.90;54.70;;;;;;5031356;28;20241;-60
2024/01/03 02:49:48;;;;;;;1.20;1.20;;;9.90;55.50;;;;;;5032342;28;20247;-60
2024/01/03 02:52:14;;;;;;;1.43;1.20;;;9.90;55.00;;;;;;5027592;28;20261;-60
2024/01/03 02:54:41;;;;;;;1.00;1.00;;;9.90;55.00;;;;;;5026361;28;20895;-60
2024/01/03 02:57:07;;;;;;;1.20;1.20;;;9.90;54.90;;;;;;5036460;28;20247;-60
2024/01/03 02:59:34;;;;;;;2.10;1.30;;;10.00;54.00;;;;;;5035634;28;20213;-60
2024/01/03 03:02:00;;;;;;;1.20;1.20;;;10.00;54.10;;;;;;5034683;28;20270;-60
2024/01/03 03:04:27;;;;;;;1.10;1.10;;;10.00;54.00;;;;;;5034960;28;20771;-60
2024/01/03 03:06:53;;;;;;;1.30;1.30;;;10.00;53.80;;;;;;5035052;28;20225;-60
2024/01/03 03:09:20;;;;;;;1.30;1.30;;;10.00;54.20;;;;;;5035019;28;20255;-60
2024/01/03 03:11:47;;;;;;;1.20;1.20;;;10.10;53.60;;;;;;5024367;28;20626;-60
2024/01/03 03:14:14;;;;;;;1.20;1.20;;;10.10;53.60;;;;;;5032325;28;20206;-60
2024/01/03 03:16:40;;;;;;;1.20;1.20;;;10.10;53.60;;;;;;5034401;28;20224;-60
2024/01/03 03:19:07;;;;;;;1.30;1.30;;;10.10;53.60;;;;;;5034534;28;20254;-60
2024/01/03 03:21:33;;;;;;;1.30;1.30;;;10.10;53.60;;;;;;5033951;28;20627;-60
2024/01/03 03:24:00;;;;;;;1.30;1.20;;;10.10;53.60;;;;;;5032088;28;20309;-60
2024/01/03 03:26:26;;;;;;;1.23;1.23;;;10.10;53.60;;;;;;5034685;28;20273;-60
2024/01/03 03:28:53;;;;;;;1.50;1.40;;;10.10;53.60;;;;;;5029720;28;20240;-59
2024/01/03 03:31:19;;;;;;;1.20;1.20;;;10.10;53.60;;;;;;5032372;28;20203;-60
2024/01/03 03:33:46;;;;;;;2.37;2.17;;;10.10;53.20;;;;;;5033761;28;20267;-60
2024/01/03 03:36:12;;;;;;;1.30;1.30;;;10.10;53.60;;;;;;5033686;28;20227;-60
2024/01/03 03:38:39;;;;;;;1.33;1.33;;;10.10;53.30;;;;;;5035215;28;20219;-61
2024/01/03 03:41:05;;;;;;;1.13;1.13;;;10.10;53.60;;;;;;5031203;28;20262;-59
2024/01/03 03:43:32;;;;;;;1.30;1.30;;;10.10;53.60;;;;;;5026844;28;20647;-60
2024/01/03 03:45:58;;;;;;;1.10;1.10;;;10.00;53.50;;;;;;5029924;28;20230;-60
2024/01/03 03:48:25;;;;;;;1.20;1.10;;;10.00;53.70;;;;;;5033995;28;20205;-61
2024/01/03 03:50:51;;;;;;;1.70;1.67;;;10.10;53.40;;;;;;5034309;28;20216;-61
2024/01/03 03:53:18;;;;;;;1.20;1.20;;;10.00;53.50;;;;;;5033963;28;20207;-60
2024/01/03 03:55:44;;;;;;;1.50;1.40;;;9.90;54.40;;;;;;5029032;28;20278;-60
2024/01/03 03:58:11;;;;;;;1.30;1.30;;;9.90;54.70;;;;;;5020839;28;20330;-60
2024/01/03 04:00:37;;;;;;;1.40;1.30;;;9.90;54.20;;;;;;5032729;28;20203;-60
2024/01/03 04:03:07;;;;;;;1.20;1.20;;;10.00;53.20;;;;;;5029642;28;20260;-60
2024/01/03 04:05:33;;;;;;;1.80;1.30;;;10.00;52.90;;;;;;5025847;28;20263;-60
2024/01/03 04:08:00;;;;;;;1.30;1.30;;;9.90;53.80;;;;;;5028916;28;20210;-61
2024/01/03 04:10:26;;;;;;;1.23;1.23;;;9.90;54.10;;;;;;5032715;28;20685;-61
2024/01/03 04:12:55;;;;;;;1.10;1.10;;;9.90;54.10;;;;;;5022708;28;20235;-60
2024/01/03 04:15:21;;;;;;;1.70;1.40;;;9.90;54.40;;;;;;5033325;28;20277;-61
2024/01/03 04:17:48;;;;;;;1.10;1.10;;;9.80;54.30;;;;;;5022396;28;20242;-61
2024/01/03 04:20:14;;;;;;;1.40;1.30;;;9.80;54.30;;;;;;5030071;28;20236;-60
2024/01/03 04:22:41;;;;;;;1.50;1.40;;;9.80;54.30;;;;;;5028663;28;20211;-60
2024/01/03 04:25:07;;;;;;;1.10;1.10;;;9.80;54.30;;;;;;5033569;28;20280;-60
2024/01/03 04:27:34;;;;;;;1.30;1.30;;;9.80;54.30;;;;;;5032803;28;20258;-61
2024/01/03 04:30:00;;;;;;;1.20;1.10;;;9.80;54.60;;;;;;5033550;28;20208;-60
2024/01/03 04:32:27;;;;;;;1.47;1.37;;;9.80;54.30;;;;;;5033153;28;20216;-61
2024/01/03 04:34:53;;;;;;;1.20;1.20;;;9.80;54.70;;;;;;5033318;28;20238;-60
2024/01/03 04:37:19;;;;;;;1.20;1.20;;;9.80;54.70;;;;;;5028518;28;20242;-60
2024/01/03 04:39:46;;;;;;;1.50;1.50;;;9.80;54.30;;;;;;5019918;28;20238;-61
2024/01/03 04:42:12;;;;;;;1.40;1.30;;;9.80;54.30;;;;;;5030273;28;20209;-60
2024/01/03 04:44:39;;;;;;;1.30;1.30;;;9.70;55.00;;;;;;5033158;28;20271;-60
2024/01/03 04:47:05;;;;;;;1.30;1.20;;;9.80;55.30;;;;;;5032612;28;20723;-60
2024/01/03 04:49:32;;;;;;;1.30;1.30;;;9.70;54.80;;;;;;5033588;28;20238;-60
2024/01/03 04:51:58;;;;;;;2.30;1.40;;;9.70;55.10;;;;;;5033073;28;20770;-60
2024/01/03 04:54:25;;;;;;;1.17;1.17;;;9.70;55.70;;;;;;5028846;28;20207;-61
2024/01/03 04:56:51;;;;;;;1.30;1.30;;;9.70;55.10;;;;;;5031369;28;20745;-60
2024/01/03 04:59:18;;;;;;;1.20;1.10;;;9.70;54.70;;;;;;5029530;28;20203;-60
2024/01/03 05:01:44;;;;;;;1.00;1.00;;;9.80;54.30;;;;;;5031167;28;20625;-59
2024/01/03 05:04:11;;;;;;;1.10;1.10;;;9.90;54.50;;;;;;5032319;28;20262;-61
2024/01/03 05:06:37;;;;;;;1.20;1.20;;;9.90;54.40;;;;;;5029514;28;20249;-60
2024/01/03 05:09:04;;;;;;;1.40;1.40;;;9.90;54.60;;;;;;5032608;28;20301;-59
2024/01/03 05:11:31;;;;;;;1.20;1.20;;;9.90;54.40;;;;;;5025101;28;20298;-62
2024/01/03 05:13:57;;;;;;;1.37;1.37;;;9.80;54.80;;;;;;5032646;28;20217;-62
2024/01/03 05:16:24;;;;;;;1.30;1.30;;;9.80;54.80;;;;;;5030964;28;20267;-62
2024/01/03 05:18:51;;;;;;;1.10;1.10;;;9.80;54.70;;;;;;5032414;28;20239;-62
2024/01/03 05:21:17;;;;;;;1.30;1.30;;;9.80;55.00;;;;;;5032525;28;20669;-62
2024/01/03 05:23:44;;;;;;;1.30;1.30;;;9.80;55.10;;;;;;5030757;28;20239;-61
2024/01/03 05:26:10;;;;;;;1.30;1.30;;;9.80;55.00;;;;;;5030389;28;20254;-62
2024/01/03 05:28:37;;;;;;;1.10;1.10;;;9.80;54.90;;;;;;5032104;28;20258;-62
2024/01/03 05:31:03;;;;;;;1.43;1.33;;;9.70;55.30;;;;;;5032139;28;20686;-61
2024/01/03 05:33:29;;;;;;;1.20;1.20;;;9.70;55.80;;;;;;5031830;28;20247;-62
2024/01/03 05:35:56;;;;;;;1.17;1.17;;;9.70;55.90;;;;;;5024714;28;20259;-62
2024/01/03 05:38:22;;;;;;;1.00;1.00;;;9.70;56.20;;;;;;5025428;28;20213;-61
2024/01/03 05:40:50;;;;;;;1.50;1.40;;;9.70;56.20;;;;;;5032226;28;20246;-61
2024/01/03 05:43:17;;;;;;;1.30;1.30;;;9.70;56.30;;;;;;5028428;28;20677;-60
2024/01/03 05:45:43;;;;;;;1.50;1.40;;;9.70;56.30;;;;;;5022860;28;20224;-62
2024/01/03 05:48:10;;;;;;;1.03;1.03;;;9.70;56.30;;;;;;5030412;28;20242;-62
2024/01/03 05:50:36;;;;;;;1.20;1.13;;;9.70;55.90;;;;;;5032121;28;20294;-62
2024/01/03 05:53:03;;;;;;;1.20;1.20;;;9.70;57.40;;;;;;5032044;28;20751;-62
2024/01/03 05:55:30;;;;;;;1.10;1.10;;;9.70;58.60;;;;;;5023698;28;20777;-60
2024/01/03 05:57:56;;;;;;;1.30;1.30;;;9.60;58.50;;;;;;5029295;28;20684;-61
2024/01/03 06:00:23;;;;;;;1.30;1.30;;;9.60;58.50;;;;;;5031808;28;20206;-61
2024/01/03 06:02:49;;;;;;;1.20;1.20;;;9.60;58.50;;;;;;5028745;28;20674;-62
2024/01/03 06:05:16;;;;;;;1.40;1.40;;;9.60;59.00;;;;;;5029894;28;20265;-62
2024/01/03 06:07:44;;;;;;;1.20;1.20;;;9.60;58.60;;;;;;5031657;28;20285;-62
2024/01/03 06:10:10;;;;;;;1.20;1.20;;;9.50;59.50;;;;;;5031911;28;20232;-62
2024/01/03 06:12:38;;;;;;;1.40;1.30;;;9.50;58.70;;;;;;5031847;28;20238;-62
2024/01/03 06:15:05;;;;;;;1.37;1.37;;;9.50;59.70;;;;;;5030997;28;20644;-62
2024/01/03 06:17:31;;;;;;;1.40;1.30;;;9.50;59.90;;;;;;5025262;28;20234;-62
2024/01/03 06:19:58;;;;;;;1.30;1.30;;;9.50;59.80;;;;;;5030693;28;20254;-61
2024/01/03 06:22:24;;;;;;;1.33;1.27;;;9.40;60.80;;;;;;5031705;28;20298;-61
2024/01/03 06:24:51;;;;;;;1.30;1.30;;;9.40;61.50;;;;;;5029075;28;20229;-62
2024/01/03 06:27:17;;;;;;;1.43;1.30;;;9.50;61.40;;;;;;5026759;28;20243;-62
2024/01/03 06:29:44;;;;;;;1.10;1.10;;;9.40;61.60;;;;;;5024539;28;20744;-62
2024/01/03 06:32:10;;;;;;;1.50;1.40;;;9.30;61.60;;;;;;5028768;28;20211;-62
2024/01/03 06:34:37;;;;;;;1.60;1.50;;;9.30;62.60;;;;;;5031167;28;20245;-62
2024/01/03 06:37:03;;;;;;;1.33;1.33;;;9.30;62.00;;;;;;5024289;28;20261;-62
2024/01/03 06:39:30;;;;;;;1.30;1.30;;;9.30;62.10;;;;;;5026463;28;20203;-63
2024/01/03 06:41:56;;;;;;;1.30;1.30;;;9.40;61.70;;;;;;5030660;28;20643;-60
2024/01/03 06:44:23;;;;;;;1.40;1.40;;;9.40;61.30;;;;;;5025377;28;20317;-60
2024/01/03 06:46:51;;;;;;;1.40;1.30;;;9.40;61.70;;;;;;5033721;28;20227;-62
2024/01/03 06:49:18;;;;;;;1.73;1.63;;;9.40;60.80;;;;;;5031999;28;20246;-61
2024/01/03 06:51:44;;;;;;;1.70;1.60;;;9.40;60.70;;;;;;5028097;28;20207;-62
2024/01/03 06:54:11;;;;;;;1.23;1.23;;;9.40;60.50;;;;;;5030330;28;20205;-60
2024/01/03 06:56:37;;;;;;;1.30;1.30;;;9.40;60.40;;;;;;5026046;28;20304;-62
2024/01/03 06:59:04;;;;;;;1.57;1.57;;;9.40;60.00;;;;;;5035172;28;20237;-61
2024/01/03 07:01:31;;;;;;;2.10;1.50;;;9.50;60.20;;;;;;5030610;28;20210;-61
2024/01/03 07:03:59;;;;;;;1.50;1.50;;;9.50;59.20;;;;;;5031532;28;20319;-61
2024/01/03 07:06:25;;;;;;;1.40;1.40;;;9.50;59.80;;;;;;5029314;28;20340;-62
2024/01/03 07:08:53;;;;;;;1.60;1.50;;;9.50;59.40;;;;;;5026030;28;20203;-62
2024/01/03 07:11:18;;;;;;;1.20;1.20;;;9.50;59.90;;;;;;5029680;28;20863;-62
2024/01/03 07:13:45;;;;;;;1.40;1.33;;;9.50;60.20;;;;;;5035008;28;20208;-62
2024/01/03 07:16:11;;;;;;;1.50;1.40;;;9.50;59.70;;;;;;5031999;28;20264;-62
2024/01/03 07:18:38;;;;;;;1.63;1.50;;;9.50;61.00;;;;;;5028583;28;20759;-62
2024/01/03 07:21:04;;;;;;;2.40;1.43;;;9.50;60.90;;;;;;5032028;28;20293;-63
2024/01/03 07:23:31;;;;;;;1.80;1.70;;;9.50;60.60;;;;;;5025797;28;20300;-62
2024/01/03 07:25:58;;;;;;;3.87;3.43;;;9.50;60.50;;;;;;5025345;28;20238;-62
2024/01/03 07:28:24;;;;;;;1.43;1.43;;;9.50;61.40;;;;;;5022922;28;20231;-62
2024/01/03 07:30:51;;;;;;;1.60;1.50;;;9.60;60.90;;;;;;5018684;28;20235;-62
2024/01/03 07:33:17;;;;;;;2.20;1.60;;;9.60;60.20;;;;;;5034620;28;20272;-62
2024/01/03 07:35:44;;;;;;;1.23;1.23;;;9.60;59.20;;;;;;5027601;28;20220;-62
2024/01/03 07:38:19;;;;;;;1.40;1.33;;;9.60;58.80;;;;;;5032151;28;20253;-62
2024/01/03 07:40:45;;;;;;;1.40;1.40;;;9.60;58.80;;;;;;5030717;28;20581;-61
2024/01/03 07:43:12;;;;;;;1.60;1.50;;;9.70;59.10;;;;;;5030439;28;20243;-62
2024/01/03 07:45:38;;;;;;;1.90;1.47;;;9.70;58.60;;;;;;5032159;28;20700;-62
2024/01/03 07:48:05;;;;;;;1.40;1.30;;;9.70;57.90;;;;;;5029135;28;20233;-62
2024/01/03 07:50:31;;;;;;;1.93;1.60;;;9.70;58.00;;;;;;5027035;28;20624;-62
2024/01/03 07:52:58;;;;;;;1.90;1.60;;;9.70;57.60;;;;;;5030945;28;20591;-62
2024/01/03 07:55:24;;;;;;;1.90;1.40;;;9.60;57.70;;;;;;5021717;28;20277;-62
2024/01/03 07:57:51;;;;;;;1.67;1.50;;;9.60;56.60;;;;;;5025175;28;20217;-62
2024/01/03 08:00:17;;;;;;;2.60;1.70;;;9.70;55.80;;;;;;5034622;28;20258;-62
2024/01/03 08:02:44;;;;;;;3.27;1.50;;;9.80;55.60;;;;;;5034595;28;20247;-62
2024/01/03 08:05:10;;;;;;;3.13;1.40;;;9.90;54.60;;;;;;5033949;28;20239;-61
2024/01/03 08:07:37;;;;;;;1.90;1.37;;;9.90;54.80;;;;;;5025287;28;20204;-61
2024/01/03 08:10:03;;;;;;;1.87;1.60;;;9.90;54.40;;;;;;5020784;28;20234;-62
2024/01/03 08:12:30;;;;;;;1.80;1.67;;;9.90;55.10;;;;;;5019094;28;20294;-64
2024/01/03 08:14:57;;;;;;;3.77;2.10;;;9.90;55.80;;;;;;5018747;28;20252;-61
2024/01/03 08:17:24;;;;;;;1.73;1.33;;;9.70;56.80;;;;;;5016257;28;20208;-61
2024/01/03 08:19:50;;;;;;;3.37;1.70;;;9.60;57.40;;;;;;5022396;28;20236;-61
2024/01/03 08:22:17;;;;;;;2.23;1.70;;;9.60;57.70;;;;;;5022528;28;20243;-61
2024/01/03 08:24:43;;;;;;;3.73;1.60;;;9.60;57.40;;;;;;5024773;28;20239;-61
2024/01/03 08:27:10;;;;;;;4.53;1.60;;;9.60;57.20;;;;;;5021713;28;20243;-62
2024/01/03 08:29:37;;;;;;;1.93;1.50;;;9.60;57.10;;;;;;5012637;28;20219;-62
2024/01/03 08:32:03;;;;;;;3.13;1.90;;;9.70;57.00;;;;;;5026065;28;20741;-62
2024/01/03 08:34:30;;;;;;;4.30;1.93;;;9.80;57.40;;;;;;5000258;28;20232;-62
2024/01/03 08:36:56;;;;;;;1.57;1.43;;;9.90;56.60;;;;;;5006643;28;20278;-63
2024/01/03 08:39:23;;;;;;;1.70;1.60;;;10.00;54.80;;;;;;5011907;28;20298;-62
2024/01/03 08:41:53;;;;;;;1.50;1.40;;;10.10;54.60;;;;;;5011770;28;20237;-63
2024/01/03 08:44:20;;;;;;;1.73;1.57;;;10.00;54.30;;;;;;5004546;28;20664;-63
2024/01/03 08:46:46;;;;;;;2.77;1.50;;;10.00;54.40;;;;;;5001604;28;20310;-61
2024/01/03 08:49:13;;;;;;;3.20;1.73;;;10.00;54.00;;;;;;4996742;28;20297;-62
2024/01/03 08:51:39;;;;;;;1.93;1.50;;;10.10;53.60;;;;;;5004261;28;20205;-63
2024/01/03 08:54:06;;;;;;;1.70;1.60;;;10.10;52.70;;;;;;4995018;28;20672;-62
2024/01/03 08:56:32;;;;;;;1.90;1.33;;;10.10;53.40;;;;;;5010387;28;20257;-63
2024/01/03 08:58:59;;;;;;;2.67;1.80;;;10.10;52.60;;;;;;5012300;28;20721;-69
2024/01/03 09:01:27;;;;;;;1.70;1.60;;;10.30;52.30;;;;;;4996996;28;20239;-62
2024/01/03 09:03:53;;;;;;;1.67;1.57;;;10.20;52.30;;;;;;5011605;28;20209;-63
2024/01/03 09:06:20;;;;;;;1.63;1.53;;;10.20;53.20;;;;;;5004354;28;20241;-63
2024/01/03 09:08:50;;;;;;;1.90;1.40;;;10.30;52.70;;;;;;5004870;28;20605;-63
2024/01/03 09:11:17;;;;;;;1.57;1.33;;;10.30;52.40;;;;;;5010595;28;20251;-63
2024/01/03 09:13:43;;;;;;;1.60;1.50;;;10.30;52.10;;;;;;5010031;28;20208;-63
2024/01/03 09:16:10;;;;;;;1.40;1.30;;;10.30;51.90;;;;;;5006981;28;20261;-63
2024/01/03 09:18:37;;;;;;;1.70;1.60;;;10.30;51.30;;;;;;5007063;28;20240;-63
2024/01/03 09:21:03;;;;;;;1.60;1.50;;;10.40;50.70;;;;;;5006373;28;20705;-62
2024/01/03 09:23:30;;;;;;;1.73;1.50;;;10.50;50.70;;;;;;5002595;28;20699;-62
2024/01/03 09:26:02;;;;;;;2.23;1.60;;;10.70;50.20;;;;;;5000808;28;20235;-62
2024/01/03 09:28:29;;;;;;;3.23;1.47;;;11.00;49.10;;;;;;5004767;28;20678;-62
2024/01/03 09:33:24;;;;;;;2.63;1.63;;;12.10;45.80;;;;;;5028142;28;20284;-63
2024/01/03 09:35:51;;;;;;;1.40;1.20;;;11.80;46.70;;;;;;5026556;28;20262;-63
2024/01/03 09:38:17;;;;;;;1.67;1.30;;;11.60;46.80;;;;;;5025527;28;20662;-64
2024/01/03 09:40:46;;;;;;;1.80;1.40;;;11.80;46.40;;;;;;5024543;28;20257;-64
2024/01/03 09:43:12;;;;;;;1.33;1.23;;;11.40;47.00;;;;;;5029237;28;20647;-64
2024/01/03 09:45:39;;;;;;;1.93;1.50;;;11.70;47.00;;;;;;5023510;28;20255;-62
2024/01/03 09:48:05;;;;;;;1.37;1.27;;;12.30;46.10;;;;;;5028827;28;20215;-63
2024/01/03 09:50:32;;;;;;;1.87;1.47;;;12.40;43.70;;;;;;5032529;28;20248;-61
2024/01/03 09:52:58;;;;;;;1.60;1.50;;;12.80;44.20;;;;;;5034171;28;20213;-62
2024/01/03 09:55:27;;;;;;;1.50;1.40;;;13.00;43.50;;;;;;5020712;28;20293;-61
2024/01/03 09:57:54;;;;;;;1.90;1.30;;;13.70;42.10;;;;;;5027484;28;20219;-62
2024/01/03 10:00:20;;;;;;;2.17;1.23;;;13.50;42.20;;;;;;5031612;28;20662;-61
2024/01/03 10:02:47;;;;;;;2.40;1.20;;;13.30;42.00;;;;;;5026517;28;20217;-63
2024/01/03 10:05:14;;;;;;;2.30;1.37;;;13.00;43.40;;;;;;5029378;28;20269;-63
2024/01/03 10:07:42;;;;;;;1.30;1.20;;;12.90;42.50;;;;;;5031737;28;20209;-63
2024/01/03 10:10:08;;;;;;;1.47;1.37;;;12.70;42.30;;;;;;5023609;28;20361;-62
2024/01/03 10:12:35;;;;;;;1.50;1.40;;;13.10;40.90;;;;;;5026446;28;20200;-63
2024/01/03 10:15:02;;;;;;;1.47;1.17;;;13.40;41.00;;;;;;5027937;28;20262;-63
2024/01/03 10:17:31;;;;;;;1.60;1.30;;;13.70;39.70;;;;;;5027744;28;20209;-63
2024/01/03 10:19:57;;;;;;;1.10;1.00;;;14.30;38.70;;;;;;5027370;28;20274;-62
2024/01/03 10:22:23;;;;;;;1.83;1.20;;;13.60;38.40;;;;;;5031345;28;20196;-63
2024/01/03 10:24:50;;;;;;;1.50;1.40;;;12.90;41.10;;;;;;5031178;28;20267;-63
2024/01/03 10:27:17;;;;;;;0.93;0.93;;;12.80;42.80;;;;;;5022698;28;20204;-63
2024/01/03 10:29:44;;;;;;;1.60;1.40;;;12.70;40.90;;;;;;5031545;28;20291;-62
2024/01/03 10:32:11;;;;;;;2.07;1.33;;;13.70;41.20;;;;;;5027772;28;20217;-64
2024/01/03 10:34:37;;;;;;;1.90;1.10;;;13.00;40.20;;;;;;5030857;28;20238;-64
2024/01/03 10:37:04;;;;;;;1.60;1.40;;;12.30;40.20;;;;;;5018162;28;20291;-63
2024/01/03 10:39:30;;;;;;;2.07;1.50;;;12.20;41.50;;;;;;5034734;28;20239;-64
2024/01/03 10:41:57;;;;;;;2.67;1.77;;;12.00;40.80;;;;;;5036536;28;20236;-64
2024/01/03 10:44:23;;;;;;;1.97;1.20;;;11.90;40.90;;;;;;5031192;28;20199;-64
2024/01/03 10:46:51;;;;;;;1.90;1.40;;;11.90;41.10;;;;;;5030209;28;20232;-62
2024/01/03 10:49:18;;;;;;;2.40;1.30;;;11.90;40.70;;;;;;5034182;28;20200;-64
2024/01/03 10:51:44;;;;;;;1.77;1.67;;;11.80;41.00;;;;;;5026215;28;20237;-63
2024/01/03 10:54:11;;;;;;;1.47;1.30;;;11.80;40.40;;;;;;5028894;28;20214;-64
2024/01/03 10:56:37;;;;;;;1.30;1.20;;;11.80;40.40;;;;;;5015082;28;20256;-64
2024/01/03 10:59:04;;;;;;;2.07;1.40;;;11.80;39.50;;;;;;5029764;28;20639;-62
2024/01/03 11:01:30;;;;;;;2.33;1.47;;;11.90;39.60;;;;;;5030344;28;20255;-63
2024/01/03 11:03:57;;;;;;;3.07;1.30;;;11.90;40.10;;;;;;5029368;28;20214;-64
2024/01/03 11:06:23;;;;;;;2.00;1.70;;;11.80;38.60;;;;;;5026880;28;20309;-63
2024/01/03 11:08:50;;;;;;;4.53;1.60;;;11.90;39.30;;;;;;5030209;28;20239;-62
2024/01/03 11:11:16;;;;;;;1.57;1.27;;;12.40;39.80;;;;;;5028302;28;20244;-63
2024/01/03 11:13:44;;;;;;;1.73;1.57;;;13.70;34.10;;;;;;5032406;28;20217;-63
2024/01/03 11:16:12;;;;;;;1.87;1.20;;;12.70;36.30;;;;;;5031904;28;20226;-64
2024/01/03 11:18:38;;;;;;;1.40;1.30;;;12.20;37.80;;;;;;5035018;28;20205;-64
2024/01/03 11:21:05;;;;;;;1.30;1.30;;;12.10;38.70;;;;;;5032492;28;20676;-65
2024/01/03 11:23:31;;;;;;;2.20;1.50;;;12.00;37.60;;;;;;5027358;28;20208;-63
2024/01/03 11:25:58;;;;;;;2.00;1.77;;;12.10;37.10;;;;;;5027368;28;20583;-63
2024/01/03 11:28:24;;;;;;;1.53;1.43;;;12.30;36.60;;;;;;5037107;28;20252;-64
2024/01/03 11:30:51;;;;;;;2.70;1.30;;;12.00;35.90;;;;;;5025281;28;20842;-63
2024/01/03 11:33:17;;;;;;;2.20;1.90;;;11.90;36.00;;;;;;5034988;28;20207;-63
2024/01/03 11:35:44;;;;;;;1.63;1.23;;;11.90;36.70;;;;;;5032224;28;20246;-63
2024/01/03 11:38:10;;;;;;;1.97;1.40;;;11.80;36.40;;;;;;5033060;28;20289;-62
2024/01/03 11:40:37;;;;;;;1.43;1.30;;;11.80;36.20;;;;;;5032932;28;20261;-61
2024/01/03 11:43:04;;;;;;;1.57;1.47;;;11.80;36.80;;;;;;5030640;28;20242;-61
2024/01/03 11:45:31;;;;;;;1.53;1.20;;;11.70;36.10;;;;;;5030546;28;20230;-63
2024/01/03 11:47:58;;;;;;;1.40;1.30;;;11.80;35.70;;;;;;5028937;28;20210;-62
2024/01/03 11:50:24;;;;;;;1.40;1.30;;;11.80;35.80;;;;;;5030832;28;20216;-64
2024/01/03 11:52:52;;;;;;;1.90;1.30;;;11.90;34.60;;;;;;5029914;28;20345;-62
2024/01/03 11:55:18;;;;;;;1.83;1.10;;;12.00;34.40;;;;;;5024273;28;20314;-62
2024/01/03 11:57:45;;;;;;;1.97;1.30;;;12.00;34.70;;;;;;5028501;28;20211;-65
2024/01/03 12:00:11;;;;;;;1.07;1.00;;;12.10;34.00;;;;;;5022170;28;20206;-64
2024/01/03 12:02:38;;;;;;;1.33;1.23;;;12.30;33.90;;;;;;5024556;28;20243;-63
2024/01/03 12:05:04;;;;;;;1.73;1.30;;;13.10;33.00;;;;;;5024745;28;20252;-61
2024/01/03 12:07:31;;;;;;;1.50;1.33;;;13.40;32.30;;;;;;5028196;28;20213;-63
2024/01/03 12:09:58;;;;;;;1.10;1.00;;;13.60;31.40;;;;;;5033377;28;20260;-64
2024/01/03 12:12:24;;;;;;;1.50;1.40;;;13.70;31.40;;;;;;5032124;28;20637;-63
2024/01/03 12:14:51;;;;;;;2.53;1.20;;;13.80;31.80;;;;;;5032923;28;20242;-64
2024/01/03 12:17:17;;;;;;;1.43;1.27;;;13.80;31.10;;;;;;5032326;28;20199;-64
2024/01/03 12:19:44;;;;;;;1.70;1.30;;;14.00;30.80;;;;;;5031937;28;20274;-61
2024/01/03 12:22:10;;;;;;;1.30;1.20;;;13.90;30.20;;;;;;5030595;28;20266;-64
2024/01/03 12:24:37;;;;;;;1.93;1.30;;;13.90;32.60;;;;;;5031349;28;20233;-64
2024/01/03 12:27:03;;;;;;;1.13;1.10;;;13.90;30.40;;;;;;5030845;28;20767;-65
2024/01/03 12:29:30;;;;;;;1.63;1.30;;;14.10;30.80;;;;;;5027658;28;20248;-64
2024/01/03 12:31:56;;;;;;;2.57;1.30;;;14.30;31.00;;;;;;5032733;28;20257;-63
2024/01/03 12:34:23;;;;;;;1.10;1.00;;;14.30;30.20;;;;;;5032679;28;20635;-63
2024/01/03 12:36:50;;;;;;;1.70;1.20;;;14.10;30.20;;;;;;5033217;28;20231;-64
2024/01/03 12:39:16;;;;;;;1.60;1.20;;;14.00;31.00;;;;;;5032052;28;20299;-64
2024/01/03 12:41:43;;;;;;;2.13;1.20;;;14.00;30.40;;;;;;5031496;28;20657;-62
2024/01/03 12:44:09;;;;;;;1.70;1.13;;;14.10;31.40;;;;;;5025318;28;20299;-62
2024/01/03 12:46:36;;;;;;;1.40;1.30;;;14.30;30.70;;;;;;5032504;28;20241;-64
2024/01/03 12:49:02;;;;;;;1.00;1.00;;;14.10;30.20;;;;;;5023931;28;20292;-64
2024/01/03 12:51:28;;;;;;;4.23;1.40;;;14.20;31.30;;;;;;5025545;28;20268;-64